sensor_id;sensor_type;location;lat;lon;timestamp;temperature;humidity
6110;DHT22;3085;49.444;11.054;2024-01-30T00:00:06;4.40;99.90
6110;DHT22;3085;49.444;11.054;2024-01-30T00:02:33;4.40;99.90
6110;DHT22;3085;49.444;11.054;2024-01-30T00:05:00;4.30;99.90
6110;DHT22;3085;49.444;11.054;2024-01-30T00:07:30;4.20;99.90
6110;DHT22;3085;49.444;11.054;2024-01-30T00:09:57;4.10;99.90
6110;DHT22;3085;49.444;11.054;2024-01-30T00:12:24;4.30;99.90
6110;DHT22;3085;49.444;11.054;2024-01-30T00:14:52;4.30;99.90
6110;DHT22;3085;49.444;11.054;2024-01-30T00:17:18;4.30;99.90
6110;DHT22;3085;49.444;11.054;2024-01-30T00:19:46;4.30;99.90
6110;DHT22;3085;49.444;11.054;2024-01-30T00:22:13;4.30;99.90
6110;DHT22;3085;49.444;11.054;2024-01-30T00:24:41;4.20;99.90
6110;DHT22;3085;49.444;11.054;2024-01-30T00:27:08;4.20;99.90
6110;DHT22;3085;49.444;11.054;2024-01-30T00:29:34;4.20;99.90
6110;DHT22;3085;49.444;11.054;2024-01-30T00:32:01;4.00;99.90
6110;DHT22;3085;49.444;11.054;2024-01-30T00:34:28;4.10;99.90
6110;DHT22;3085;49.444;11.054;2024-01-30T00:36:55;4.10;99.90
6110;DHT22;3085;49.444;11.054;2024-01-30T00:39:21;4.10;99.90
6110;DHT22;3085;49.444;11.054;2024-01-30T00:41:50;3.90;99.90
6110;DHT22;3085;49.444;11.054;2024-01-30T00:44:16;4.10;99.90
6110;DHT22;3085;49.444;11.054;2024-01-30T00:46:43;4.10;99.90
6110;DHT22;3085;49.444;11.054;2024-01-30T00:49:10;4.10;99.90
6110;DHT22;3085;49.444;11.054;2024-01-30T00:51:37;4.10;99.90
6110;DHT22;3085;49.444;11.054;2024-01-30T00:54:04;4.10;99.90
6110;DHT22;3085;49.444;11.054;2024-01-30T00:56:31;4.10;99.90
6110;DHT22;3085;49.444;11.054;2024-01-30T00:59:00;4.00;99.90
6110;DHT22;3085;49.444;11.054;2024-01-30T01:01:26;4.10;99.90
6110;DHT22;3085;49.444;11.054;2024-01-30T01:03:53;4.10;99.90
6110;DHT22;3085;49.444;11.054;2024-01-30T01:06:20;4.10;99.90
6110;DHT22;3085;49.444;11.054;2024-01-30T01:08:46;4.00;99.90
6110;DHT22;3085;49.444;11.054;2024-01-30T01:11:13;4.10;99.90
6110;DHT22;3085;49.444;11.054;2024-01-30T01:13:40;4.00;99.90
6110;DHT22;3085;49.444;11.054;2024-01-30T01:16:08;4.00;99.90
6110;DHT22;3085;49.444;11.054;2024-01-30T01:18:35;4.00;99.90
6110;DHT22;3085;49.444;11.054;2024-01-30T01:21:02;4.00;99.90
6110;DHT22;3085;49.444;11.054;2024-01-30T01:23:28;4.00;99.90
6110;DHT22;3085;49.444;11.054;2024-01-30T01:25:55;3.80;99.90
6110;DHT22;3085;49.444;11.054;2024-01-30T01:28:22;3.80;99.90
6110;DHT22;3085;49.444;11.054;2024-01-30T01:30:48;3.80;99.90
6110;DHT22;3085;49.444;11.054;2024-01-30T01:33:16;3.80;99.90
6110;DHT22;3085;49.444;11.054;2024-01-30T01:35:43;3.90;99.90
6110;DHT22;3085;49.444;11.054;2024-01-30T01:38:10;3.80;99.90
6110;DHT22;3085;49.444;11.054;2024-01-30T01:40:37;3.60;99.90
6110;DHT22;3085;49.444;11.054;2024-01-30T01:43:06;3.50;99.90
6110;DHT22;3085;49.444;11.054;2024-01-30T01:45:33;3.50;99.90
6110;DHT22;3085;49.444;11.054;2024-01-30T01:47:59;3.50;99.90
6110;DHT22;3085;49.444;11.054;2024-01-30T01:50:27;3.60;99.90
6110;DHT22;3085;49.444;11.054;2024-01-30T01:52:54;3.60;99.90
6110;DHT22;3085;49.444;11.054;2024-01-30T01:55:22;3.60;99.90
6110;DHT22;3085;49.444;11.054;2024-01-30T01:57:51;3.40;99.90
6110;DHT22;3085;49.444;11.054;2024-01-30T02:00:20;3.40;99.90
6110;DHT22;3085;49.444;11.054;2024-01-30T02:02:47;3.40;99.90
6110;DHT22;3085;49.444;11.054;2024-01-30T02:05:14;3.40;99.90
6110;DHT22;3085;49.444;11.054;2024-01-30T02:07:43;3.40;99.90
6110;DHT22;3085;49.444;11.054;2024-01-30T02:10:10;3.20;99.90
6110;DHT22;3085;49.444;11.054;2024-01-30T02:12:37;3.40;99.90
6110;DHT22;3085;49.444;11.054;2024-01-30T02:15:04;3.40;99.90
6110;DHT22;3085;49.444;11.054;2024-01-30T02:17:32;3.60;99.90
6110;DHT22;3085;49.444;11.054;2024-01-30T02:19:59;3.70;99.90
6110;DHT22;3085;49.444;11.054;2024-01-30T02:22:27;3.80;99.90
6110;DHT22;3085;49.444;11.054;2024-01-30T02:24:54;3.80;99.90
6110;DHT22;3085;49.444;11.054;2024-01-30T02:27:21;3.90;99.90
6110;DHT22;3085;49.444;11.054;2024-01-30T02:29:48;4.00;99.90
6110;DHT22;3085;49.444;11.054;2024-01-30T02:32:14;3.80;99.90
6110;DHT22;3085;49.444;11.054;2024-01-30T02:34:41;3.90;99.90
6110;DHT22;3085;49.444;11.054;2024-01-30T02:37:08;3.90;99.90
6110;DHT22;3085;49.444;11.054;2024-01-30T02:39:36;3.90;99.90
6110;DHT22;3085;49.444;11.054;2024-01-30T02:42:03;3.90;99.90
6110;DHT22;3085;49.444;11.054;2024-01-30T02:44:30;3.90;99.90
6110;DHT22;3085;49.444;11.054;2024-01-30T02:46:56;3.70;99.90
6110;DHT22;3085;49.444;11.054;2024-01-30T02:49:23;3.60;99.90
6110;DHT22;3085;49.444;11.054;2024-01-30T02:51:50;3.60;99.90
6110;DHT22;3085;49.444;11.054;2024-01-30T02:54:17;3.50;99.90
6110;DHT22;3085;49.444;11.054;2024-01-30T02:56:45;3.50;99.90
6110;DHT22;3085;49.444;11.054;2024-01-30T02:59:11;3.60;99.90
6110;DHT22;3085;49.444;11.054;2024-01-30T03:01:45;3.60;99.90
6110;DHT22;3085;49.444;11.054;2024-01-30T03:04:11;3.60;99.90
6110;DHT22;3085;49.444;11.054;2024-01-30T03:06:38;3.40;99.90
6110;DHT22;3085;49.444;11.054;2024-01-30T03:09:04;3.40;99.90
6110;DHT22;3085;49.444;11.054;2024-01-30T03:11:31;3.50;99.90
6110;DHT22;3085;49.444;11.054;2024-01-30T03:13:59;3.40;99.90
6110;DHT22;3085;49.444;11.054;2024-01-30T03:16:26;3.50;99.90
6110;DHT22;3085;49.444;11.054;2024-01-30T03:18:52;3.50;99.90
6110;DHT22;3085;49.444;11.054;2024-01-30T03:21:19;3.60;99.90
6110;DHT22;3085;49.444;11.054;2024-01-30T03:23:47;3.60;99.90
6110;DHT22;3085;49.444;11.054;2024-01-30T03:26:13;3.60;99.90
6110;DHT22;3085;49.444;11.054;2024-01-30T03:28:40;3.60;99.90
6110;DHT22;3085;49.444;11.054;2024-01-30T03:31:08;3.60;99.90
6110;DHT22;3085;49.444;11.054;2024-01-30T03:33:36;3.60;99.90
6110;DHT22;3085;49.444;11.054;2024-01-30T03:36:04;3.60;99.90
6110;DHT22;3085;49.444;11.054;2024-01-30T03:38:31;3.60;99.90
6110;DHT22;3085;49.444;11.054;2024-01-30T03:40:58;3.60;99.90
6110;DHT22;3085;49.444;11.054;2024-01-30T03:43:25;3.60;99.90
6110;DHT22;3085;49.444;11.054;2024-01-30T03:45:51;3.60;99.90
6110;DHT22;3085;49.444;11.054;2024-01-30T03:48:20;3.70;99.90
6110;DHT22;3085;49.444;11.054;2024-01-30T03:50:47;3.50;99.90
6110;DHT22;3085;49.444;11.054;2024-01-30T03:53:14;3.50;99.90
6110;DHT22;3085;49.444;11.054;2024-01-30T03:55:40;3.40;99.90
6110;DHT22;3085;49.444;11.054;2024-01-30T03:58:07;3.50;99.90
6110;DHT22;3085;49.444;11.054;2024-01-30T04:00:34;3.40;99.90
6110;DHT22;3085;49.444;11.054;2024-01-30T04:03:00;3.40;99.90
6110;DHT22;3085;49.444;11.054;2024-01-30T04:05:29;3.20;99.90
6110;DHT22;3085;49.444;11.054;2024-01-30T04:07:55;3.30;99.90
6110;DHT22;3085;49.444;11.054;2024-01-30T04:10:23;3.30;99.90
6110;DHT22;3085;49.444;11.054;2024-01-30T04:12:50;3.40;99.90
6110;DHT22;3085;49.444;11.054;2024-01-30T04:15:17;3.30;99.90
6110;DHT22;3085;49.444;11.054;2024-01-30T04:17:44;3.20;99.90
6110;DHT22;3085;49.444;11.054;2024-01-30T04:20:13;3.20;99.90
6110;DHT22;3085;49.444;11.054;2024-01-30T04:22:42;3.10;99.90
6110;DHT22;3085;49.444;11.054;2024-01-30T04:25:09;3.10;99.90
6110;DHT22;3085;49.444;11.054;2024-01-30T04:27:36;3.20;99.90
6110;DHT22;3085;49.444;11.054;2024-01-30T04:30:03;3.10;99.90
6110;DHT22;3085;49.444;11.054;2024-01-30T04:32:30;3.20;99.90
6110;DHT22;3085;49.444;11.054;2024-01-30T04:34:57;3.00;99.90
6110;DHT22;3085;49.444;11.054;2024-01-30T04:37:23;3.00;99.90
6110;DHT22;3085;49.444;11.054;2024-01-30T04:39:51;3.00;99.90
6110;DHT22;3085;49.444;11.054;2024-01-30T04:42:18;3.10;99.90
6110;DHT22;3085;49.444;11.054;2024-01-30T04:44:45;3.10;99.90
6110;DHT22;3085;49.444;11.054;2024-01-30T04:47:11;3.10;99.90
6110;DHT22;3085;49.444;11.054;2024-01-30T04:49:38;3.10;99.90
6110;DHT22;3085;49.444;11.054;2024-01-30T04:52:06;3.20;99.90
6110;DHT22;3085;49.444;11.054;2024-01-30T04:54:32;3.00;99.90
6110;DHT22;3085;49.444;11.054;2024-01-30T04:57:01;3.10;99.90
6110;DHT22;3085;49.444;11.054;2024-01-30T04:59:28;3.10;99.90
6110;DHT22;3085;49.444;11.054;2024-01-30T05:01:55;3.10;99.90
6110;DHT22;3085;49.444;11.054;2024-01-30T05:04:21;3.20;99.90
6110;DHT22;3085;49.444;11.054;2024-01-30T05:06:48;3.10;99.90
6110;DHT22;3085;49.444;11.054;2024-01-30T05:09:15;3.10;99.90
6110;DHT22;3085;49.444;11.054;2024-01-30T05:11:41;3.10;99.90
6110;DHT22;3085;49.444;11.054;2024-01-30T05:14:09;3.10;99.90
6110;DHT22;3085;49.444;11.054;2024-01-30T05:16:37;3.10;99.90
6110;DHT22;3085;49.444;11.054;2024-01-30T05:19:04;3.30;99.90
6110;DHT22;3085;49.444;11.054;2024-01-30T05:21:30;3.40;99.90
6110;DHT22;3085;49.444;11.054;2024-01-30T05:23:57;3.40;99.90
6110;DHT22;3085;49.444;11.054;2024-01-30T05:26:24;3.30;99.90
6110;DHT22;3085;49.444;11.054;2024-01-30T05:28:50;3.40;99.90
6110;DHT22;3085;49.444;11.054;2024-01-30T05:31:18;3.30;99.90
6110;DHT22;3085;49.444;11.054;2024-01-30T05:33:46;3.50;99.90
6110;DHT22;3085;49.444;11.054;2024-01-30T05:36:13;3.50;99.90
6110;DHT22;3085;49.444;11.054;2024-01-30T05:38:40;3.40;99.90
6110;DHT22;3085;49.444;11.054;2024-01-30T05:41:07;3.30;99.90
6110;DHT22;3085;49.444;11.054;2024-01-30T05:43:34;3.40;99.90
6110;DHT22;3085;49.444;11.054;2024-01-30T05:46:00;3.40;99.90
6110;DHT22;3085;49.444;11.054;2024-01-30T05:48:28;3.50;99.90
6110;DHT22;3085;49.444;11.054;2024-01-30T05:50:55;3.50;99.90
6110;DHT22;3085;49.444;11.054;2024-01-30T05:53:22;3.40;99.90
6110;DHT22;3085;49.444;11.054;2024-01-30T05:55:49;3.50;99.90
6110;DHT22;3085;49.444;11.054;2024-01-30T05:58:15;3.40;99.90
6110;DHT22;3085;49.444;11.054;2024-01-30T06:00:42;3.50;99.90
6110;DHT22;3085;49.444;11.054;2024-01-30T06:03:09;3.50;99.90
6110;DHT22;3085;49.444;11.054;2024-01-30T06:05:40;3.50;99.90
6110;DHT22;3085;49.444;11.054;2024-01-30T06:08:07;3.50;99.90
6110;DHT22;3085;49.444;11.054;2024-01-30T06:10:34;3.40;99.90
6110;DHT22;3085;49.444;11.054;2024-01-30T06:13:00;3.40;99.90
6110;DHT22;3085;49.444;11.054;2024-01-30T06:15:27;3.50;99.90
6110;DHT22;3085;49.444;11.054;2024-01-30T06:17:55;3.50;99.90
6110;DHT22;3085;49.444;11.054;2024-01-30T06:20:21;3.50;99.90
6110;DHT22;3085;49.444;11.054;2024-01-30T06:22:49;3.60;99.90
6110;DHT22;3085;49.444;11.054;2024-01-30T06:25:16;3.60;99.90
6110;DHT22;3085;49.444;11.054;2024-01-30T06:27:43;3.50;99.90
6110;DHT22;3085;49.444;11.054;2024-01-30T06:30:11;3.60;99.90
6110;DHT22;3085;49.444;11.054;2024-01-30T06:32:38;3.70;99.90
6110;DHT22;3085;49.444;11.054;2024-01-30T06:35:05;3.80;99.90
6110;DHT22;3085;49.444;11.054;2024-01-30T06:37:33;3.70;99.90
6110;DHT22;3085;49.444;11.054;2024-01-30T06:40:01;3.70;99.90
6110;DHT22;3085;49.444;11.054;2024-01-30T06:42:30;3.70;99.90
6110;DHT22;3085;49.444;11.054;2024-01-30T06:44:56;4.90;99.90
6110;DHT22;3085;49.444;11.054;2024-01-30T06:47:23;5.20;99.90
6110;DHT22;3085;49.444;11.054;2024-01-30T06:49:50;5.30;99.90
6110;DHT22;3085;49.444;11.054;2024-01-30T06:52:17;5.80;99.90
6110;DHT22;3085;49.444;11.054;2024-01-30T06:54:44;5.40;99.90
6110;DHT22;3085;49.444;11.054;2024-01-30T06:57:12;5.40;99.90
6110;DHT22;3085;49.444;11.054;2024-01-30T06:59:39;5.10;99.90
6110;DHT22;3085;49.444;11.054;2024-01-30T07:02:08;4.80;99.90
6110;DHT22;3085;49.444;11.054;2024-01-30T07:04:35;4.60;99.90
6110;DHT22;3085;49.444;11.054;2024-01-30T07:07:03;4.50;99.90
6110;DHT22;3085;49.444;11.054;2024-01-30T07:09:31;4.30;99.90
6110;DHT22;3085;49.444;11.054;2024-01-30T07:11:57;4.20;99.90
6110;DHT22;3085;49.444;11.054;2024-01-30T07:14:26;4.20;99.90
6110;DHT22;3085;49.444;11.054;2024-01-30T07:16:52;4.10;99.90
6110;DHT22;3085;49.444;11.054;2024-01-30T07:19:19;4.00;99.90
6110;DHT22;3085;49.444;11.054;2024-01-30T07:21:46;4.00;99.90
6110;DHT22;3085;49.444;11.054;2024-01-30T07:24:12;4.00;99.90
6110;DHT22;3085;49.444;11.054;2024-01-30T07:26:39;4.10;99.90
6110;DHT22;3085;49.444;11.054;2024-01-30T07:29:06;4.20;99.90
6110;DHT22;3085;49.444;11.054;2024-01-30T07:31:34;4.00;99.90
6110;DHT22;3085;49.444;11.054;2024-01-30T07:34:01;4.10;99.90
6110;DHT22;3085;49.444;11.054;2024-01-30T07:36:28;4.10;99.90
6110;DHT22;3085;49.444;11.054;2024-01-30T07:38:55;4.00;99.90
6110;DHT22;3085;49.444;11.054;2024-01-30T07:41:22;4.10;99.90
6110;DHT22;3085;49.444;11.054;2024-01-30T07:43:50;4.20;99.90
6110;DHT22;3085;49.444;11.054;2024-01-30T07:46:17;4.00;99.90
6110;DHT22;3085;49.444;11.054;2024-01-30T07:48:45;3.90;99.90
6110;DHT22;3085;49.444;11.054;2024-01-30T07:51:12;4.10;99.90
6110;DHT22;3085;49.444;11.054;2024-01-30T07:53:39;3.90;99.90
6110;DHT22;3085;49.444;11.054;2024-01-30T07:56:06;3.90;99.90
6110;DHT22;3085;49.444;11.054;2024-01-30T07:58:32;3.90;99.90
6110;DHT22;3085;49.444;11.054;2024-01-30T08:00:59;3.90;99.90
6110;DHT22;3085;49.444;11.054;2024-01-30T08:03:26;3.80;99.90
6110;DHT22;3085;49.444;11.054;2024-01-30T08:05:54;3.80;99.90
6110;DHT22;3085;49.444;11.054;2024-01-30T08:08:21;3.80;99.90
6110;DHT22;3085;49.444;11.054;2024-01-30T08:10:47;3.80;99.90
6110;DHT22;3085;49.444;11.054;2024-01-30T08:13:15;3.90;99.90
6110;DHT22;3085;49.444;11.054;2024-01-30T08:15:42;4.00;99.90
6110;DHT22;3085;49.444;11.054;2024-01-30T08:18:09;3.90;99.90
6110;DHT22;3085;49.444;11.054;2024-01-30T08:20:35;4.00;99.90
6110;DHT22;3085;49.444;11.054;2024-01-30T08:23:03;3.90;99.90
6110;DHT22;3085;49.444;11.054;2024-01-30T08:25:30;3.90;99.90
6110;DHT22;3085;49.444;11.054;2024-01-30T08:27:57;4.00;99.90
6110;DHT22;3085;49.444;11.054;2024-01-30T08:30:24;4.00;99.90
6110;DHT22;3085;49.444;11.054;2024-01-30T08:32:50;4.10;99.90
6110;DHT22;3085;49.444;11.054;2024-01-30T08:35:17;4.10;99.90
6110;DHT22;3085;49.444;11.054;2024-01-30T08:37:44;4.30;99.90
6110;DHT22;3085;49.444;11.054;2024-01-30T08:40:12;4.40;99.90
6110;DHT22;3085;49.444;11.054;2024-01-30T08:42:38;4.40;99.90
6110;DHT22;3085;49.444;11.054;2024-01-30T08:45:06;4.40;99.90
6110;DHT22;3085;49.444;11.054;2024-01-30T08:47:33;4.50;99.90
6110;DHT22;3085;49.444;11.054;2024-01-30T08:50:00;4.50;99.90
6110;DHT22;3085;49.444;11.054;2024-01-30T08:52:27;4.50;99.90
6110;DHT22;3085;49.444;11.054;2024-01-30T08:54:53;4.60;99.90
6110;DHT22;3085;49.444;11.054;2024-01-30T08:57:22;4.50;99.90
6110;DHT22;3085;49.444;11.054;2024-01-30T08:59:48;4.50;99.90
6110;DHT22;3085;49.444;11.054;2024-01-30T09:02:15;4.60;99.90
6110;DHT22;3085;49.444;11.054;2024-01-30T09:04:43;4.70;99.90
6110;DHT22;3085;49.444;11.054;2024-01-30T09:07:10;4.70;99.90
6110;DHT22;3085;49.444;11.054;2024-01-30T09:09:38;4.70;99.90
6110;DHT22;3085;49.444;11.054;2024-01-30T09:12:07;4.70;99.90
6110;DHT22;3085;49.444;11.054;2024-01-30T09:14:37;4.80;99.90
6110;DHT22;3085;49.444;11.054;2024-01-30T09:17:04;4.80;99.90
6110;DHT22;3085;49.444;11.054;2024-01-30T09:19:31;4.80;99.90
6110;DHT22;3085;49.444;11.054;2024-01-30T09:21:57;4.80;99.90
6110;DHT22;3085;49.444;11.054;2024-01-30T09:24:26;4.80;99.90
6110;DHT22;3085;49.444;11.054;2024-01-30T09:26:52;4.80;99.90
6110;DHT22;3085;49.444;11.054;2024-01-30T09:29:19;4.90;99.90
6110;DHT22;3085;49.444;11.054;2024-01-30T09:31:47;5.10;99.90
6110;DHT22;3085;49.444;11.054;2024-01-30T09:34:13;5.10;99.90
6110;DHT22;3085;49.444;11.054;2024-01-30T09:36:40;5.20;99.90
6110;DHT22;3085;49.444;11.054;2024-01-30T09:39:06;5.20;99.90
6110;DHT22;3085;49.444;11.054;2024-01-30T09:41:33;5.20;99.90
6110;DHT22;3085;49.444;11.054;2024-01-30T09:44:08;5.30;99.90
6110;DHT22;3085;49.444;11.054;2024-01-30T09:46:36;5.40;99.90
6110;DHT22;3085;49.444;11.054;2024-01-30T09:49:04;5.40;99.90
6110;DHT22;3085;49.444;11.054;2024-01-30T09:51:33;5.50;99.90
6110;DHT22;3085;49.444;11.054;2024-01-30T09:54:02;5.50;99.90
6110;DHT22;3085;49.444;11.054;2024-01-30T09:56:29;5.50;99.90
6110;DHT22;3085;49.444;11.054;2024-01-30T09:58:56;5.60;99.90
6110;DHT22;3085;49.444;11.054;2024-01-30T10:01:22;5.80;99.90
6110;DHT22;3085;49.444;11.054;2024-01-30T10:03:51;5.60;99.90
6110;DHT22;3085;49.444;11.054;2024-01-30T10:06:20;5.70;99.90
6110;DHT22;3085;49.444;11.054;2024-01-30T10:08:48;5.70;99.90
6110;DHT22;3085;49.444;11.054;2024-01-30T10:11:14;5.80;99.90
6110;DHT22;3085;49.444;11.054;2024-01-30T10:13:41;5.80;99.90
6110;DHT22;3085;49.444;11.054;2024-01-30T10:16:08;5.80;99.90
6110;DHT22;3085;49.444;11.054;2024-01-30T10:18:34;6.00;99.90
6110;DHT22;3085;49.444;11.054;2024-01-30T10:21:01;6.00;99.90
6110;DHT22;3085;49.444;11.054;2024-01-30T10:23:29;6.10;99.90
6110;DHT22;3085;49.444;11.054;2024-01-30T10:25:57;6.20;99.90
6110;DHT22;3085;49.444;11.054;2024-01-30T10:28:26;6.30;99.90
6110;DHT22;3085;49.444;11.054;2024-01-30T10:30:58;6.30;99.90
6110;DHT22;3085;49.444;11.054;2024-01-30T10:33:26;6.40;99.90
6110;DHT22;3085;49.444;11.054;2024-01-30T10:35:54;6.40;99.90
6110;DHT22;3085;49.444;11.054;2024-01-30T10:38:25;6.40;99.90
6110;DHT22;3085;49.444;11.054;2024-01-30T10:40:56;6.40;99.90
6110;DHT22;3085;49.444;11.054;2024-01-30T10:43:24;6.50;99.90
6110;DHT22;3085;49.444;11.054;2024-01-30T10:45:57;6.50;99.90
6110;DHT22;3085;49.444;11.054;2024-01-30T10:48:30;6.60;99.90
6110;DHT22;3085;49.444;11.054;2024-01-30T10:50:59;6.60;99.90
6110;DHT22;3085;49.444;11.054;2024-01-30T10:53:28;6.60;99.90
6110;DHT22;3085;49.444;11.054;2024-01-30T10:55:57;6.70;99.90
6110;DHT22;3085;49.444;11.054;2024-01-30T10:58:26;6.70;99.90
6110;DHT22;3085;49.444;11.054;2024-01-30T11:00:54;6.70;99.90
6110;DHT22;3085;49.444;11.054;2024-01-30T11:03:21;6.80;99.90
6110;DHT22;3085;49.444;11.054;2024-01-30T11:05:49;6.90;99.90
6110;DHT22;3085;49.444;11.054;2024-01-30T11:08:22;7.10;99.90
6110;DHT22;3085;49.444;11.054;2024-01-30T11:10:54;7.00;99.90
6110;DHT22;3085;49.444;11.054;2024-01-30T11:13:22;7.10;99.90
6110;DHT22;3085;49.444;11.054;2024-01-30T11:15:48;7.10;99.90
6110;DHT22;3085;49.444;11.054;2024-01-30T11:18:23;7.10;99.90
6110;DHT22;3085;49.444;11.054;2024-01-30T11:20:49;7.20;99.90
6110;DHT22;3085;49.444;11.054;2024-01-30T11:23:16;7.20;99.90
6110;DHT22;3085;49.444;11.054;2024-01-30T11:25:43;7.30;99.90
6110;DHT22;3085;49.444;11.054;2024-01-30T11:28:13;7.30;99.90
6110;DHT22;3085;49.444;11.054;2024-01-30T11:30:42;7.50;99.90
6110;DHT22;3085;49.444;11.054;2024-01-30T11:33:10;7.40;99.90
6110;DHT22;3085;49.444;11.054;2024-01-30T11:35:38;7.40;99.90
6110;DHT22;3085;49.444;11.054;2024-01-30T11:38:06;7.50;99.90
6110;DHT22;3085;49.444;11.054;2024-01-30T11:40:34;7.50;99.90
6110;DHT22;3085;49.444;11.054;2024-01-30T11:43:02;7.50;99.90
6110;DHT22;3085;49.444;11.054;2024-01-30T11:45:30;7.60;99.90
6110;DHT22;3085;49.444;11.054;2024-01-30T11:47:58;7.60;99.90
6110;DHT22;3085;49.444;11.054;2024-01-30T11:50:28;7.70;99.90
6110;DHT22;3085;49.444;11.054;2024-01-30T11:52:55;7.70;99.90
6110;DHT22;3085;49.444;11.054;2024-01-30T11:55:23;7.70;99.90
6110;DHT22;3085;49.444;11.054;2024-01-30T11:57:50;7.80;99.90
6110;DHT22;3085;49.444;11.054;2024-01-30T12:00:18;7.80;99.90
6110;DHT22;3085;49.444;11.054;2024-01-30T12:02:49;7.90;99.90
6110;DHT22;3085;49.444;11.054;2024-01-30T12:05:19;7.90;99.90
6110;DHT22;3085;49.444;11.054;2024-01-30T12:07:46;8.00;99.90
6110;DHT22;3085;49.444;11.054;2024-01-30T12:10:13;8.00;99.90
6110;DHT22;3085;49.444;11.054;2024-01-30T12:12:42;8.00;99.90
6110;DHT22;3085;49.444;11.054;2024-01-30T12:15:10;8.10;99.90
6110;DHT22;3085;49.444;11.054;2024-01-30T12:17:37;8.10;99.90
6110;DHT22;3085;49.444;11.054;2024-01-30T12:20:05;8.20;99.90
6110;DHT22;3085;49.444;11.054;2024-01-30T12:22:35;8.20;99.90
6110;DHT22;3085;49.444;11.054;2024-01-30T12:25:02;8.30;99.90
6110;DHT22;3085;49.444;11.054;2024-01-30T12:27:29;8.30;99.90
6110;DHT22;3085;49.444;11.054;2024-01-30T12:29:57;8.40;99.90
6110;DHT22;3085;49.444;11.054;2024-01-30T12:32:23;8.40;99.90
6110;DHT22;3085;49.444;11.054;2024-01-30T12:34:50;8.50;99.90
6110;DHT22;3085;49.444;11.054;2024-01-30T12:37:17;8.50;99.90
6110;DHT22;3085;49.444;11.054;2024-01-30T12:39:49;8.60;99.90
6110;DHT22;3085;49.444;11.054;2024-01-30T12:42:15;8.60;99.90
6110;DHT22;3085;49.444;11.054;2024-01-30T12:44:43;8.60;99.90
6110;DHT22;3085;49.444;11.054;2024-01-30T12:47:09;8.70;99.90
6110;DHT22;3085;49.444;11.054;2024-01-30T12:49:36;8.90;99.90
6110;DHT22;3085;49.444;11.054;2024-01-30T12:52:03;8.70;99.90
6110;DHT22;3085;49.444;11.054;2024-01-30T12:54:30;8.80;99.90
6110;DHT22;3085;49.444;11.054;2024-01-30T12:56:58;8.80;99.90
6110;DHT22;3085;49.444;11.054;2024-01-30T12:59:25;8.80;99.90
6110;DHT22;3085;49.444;11.054;2024-01-30T13:01:52;8.90;99.90
6110;DHT22;3085;49.444;11.054;2024-01-30T13:04:18;9.20;99.90
6110;DHT22;3085;49.444;11.054;2024-01-30T13:06:45;9.00;99.90
6110;DHT22;3085;49.444;11.054;2024-01-30T13:09:12;9.00;99.90
6110;DHT22;3085;49.444;11.054;2024-01-30T13:11:39;8.50;99.90
6110;DHT22;3085;49.444;11.054;2024-01-30T13:14:07;9.00;99.90
6110;DHT22;3085;49.444;11.054;2024-01-30T13:16:33;9.00;99.90
6110;DHT22;3085;49.444;11.054;2024-01-30T13:19:00;9.00;99.90
6110;DHT22;3085;49.444;11.054;2024-01-30T13:21:27;9.10;99.90
6110;DHT22;3085;49.444;11.054;2024-01-30T13:23:54;9.10;99.90
6110;DHT22;3085;49.444;11.054;2024-01-30T13:26:21;9.10;99.90
6110;DHT22;3085;49.444;11.054;2024-01-30T13:28:48;9.20;99.90
6110;DHT22;3085;49.444;11.054;2024-01-30T13:31:16;9.20;99.90
6110;DHT22;3085;49.444;11.054;2024-01-30T13:33:42;9.30;99.90
6110;DHT22;3085;49.444;11.054;2024-01-30T13:36:10;9.30;99.90
6110;DHT22;3085;49.444;11.054;2024-01-30T13:38:37;9.40;99.90
6110;DHT22;3085;49.444;11.054;2024-01-30T13:41:05;9.30;99.90
6110;DHT22;3085;49.444;11.054;2024-01-30T13:43:31;9.30;99.90
6110;DHT22;3085;49.444;11.054;2024-01-30T13:45:59;9.40;99.90
6110;DHT22;3085;49.444;11.054;2024-01-30T13:48:27;9.40;99.90
6110;DHT22;3085;49.444;11.054;2024-01-30T13:50:54;9.40;99.90
6110;DHT22;3085;49.444;11.054;2024-01-30T13:53:20;9.40;99.90
6110;DHT22;3085;49.444;11.054;2024-01-30T13:55:47;9.50;99.90
6110;DHT22;3085;49.444;11.054;2024-01-30T13:58:14;9.50;99.90
6110;DHT22;3085;49.444;11.054;2024-01-30T14:00:41;9.50;99.90
6110;DHT22;3085;49.444;11.054;2024-01-30T14:03:07;9.50;99.90
6110;DHT22;3085;49.444;11.054;2024-01-30T14:05:35;9.50;99.90
6110;DHT22;3085;49.444;11.054;2024-01-30T14:08:03;9.50;99.90
6110;DHT22;3085;49.444;11.054;2024-01-30T14:10:30;9.40;99.90
6110;DHT22;3085;49.444;11.054;2024-01-30T14:12:57;9.50;99.90
6110;DHT22;3085;49.444;11.054;2024-01-30T14:15:24;9.50;99.90
6110;DHT22;3085;49.444;11.054;2024-01-30T14:17:51;9.50;99.90
6110;DHT22;3085;49.444;11.054;2024-01-30T14:20:17;9.40;99.90
6110;DHT22;3085;49.444;11.054;2024-01-30T14:22:45;9.40;99.90
6110;DHT22;3085;49.444;11.054;2024-01-30T14:25:12;9.50;99.90
6110;DHT22;3085;49.444;11.054;2024-01-30T14:27:39;9.40;99.90
6110;DHT22;3085;49.444;11.054;2024-01-30T14:30:07;9.40;99.90
6110;DHT22;3085;49.444;11.054;2024-01-30T14:32:36;9.40;99.90
6110;DHT22;3085;49.444;11.054;2024-01-30T14:35:04;9.40;99.90
6110;DHT22;3085;49.444;11.054;2024-01-30T14:37:31;9.40;99.90
6110;DHT22;3085;49.444;11.054;2024-01-30T14:39:59;9.40;99.90
6110;DHT22;3085;49.444;11.054;2024-01-30T14:42:26;9.50;99.90
6110;DHT22;3085;49.444;11.054;2024-01-30T14:44:56;9.50;99.90
6110;DHT22;3085;49.444;11.054;2024-01-30T14:47:24;9.50;99.90
6110;DHT22;3085;49.444;11.054;2024-01-30T14:49:51;9.40;99.90
6110;DHT22;3085;49.444;11.054;2024-01-30T14:52:18;9.40;99.90
6110;DHT22;3085;49.444;11.054;2024-01-30T14:54:45;9.30;99.90
6110;DHT22;3085;49.444;11.054;2024-01-30T14:57:13;9.30;99.90
6110;DHT22;3085;49.444;11.054;2024-01-30T14:59:40;9.30;99.90
6110;DHT22;3085;49.444;11.054;2024-01-30T15:02:06;9.30;99.90
6110;DHT22;3085;49.444;11.054;2024-01-30T15:04:33;9.30;99.90
6110;DHT22;3085;49.444;11.054;2024-01-30T15:07:00;9.30;99.90
6110;DHT22;3085;49.444;11.054;2024-01-30T15:09:27;9.30;99.90
6110;DHT22;3085;49.444;11.054;2024-01-30T15:11:54;9.20;99.90
6110;DHT22;3085;49.444;11.054;2024-01-30T15:14:23;9.20;99.90
6110;DHT22;3085;49.444;11.054;2024-01-30T15:16:50;9.20;99.90
6110;DHT22;3085;49.444;11.054;2024-01-30T15:19:16;9.20;99.90
6110;DHT22;3085;49.444;11.054;2024-01-30T15:21:43;9.20;99.90
6110;DHT22;3085;49.444;11.054;2024-01-30T15:24:10;9.20;99.90
6110;DHT22;3085;49.444;11.054;2024-01-30T15:26:40;9.20;99.90
6110;DHT22;3085;49.444;11.054;2024-01-30T15:29:07;9.20;99.90
6110;DHT22;3085;49.444;11.054;2024-01-30T15:31:35;9.10;99.90
6110;DHT22;3085;49.444;11.054;2024-01-30T15:34:01;9.10;99.90
6110;DHT22;3085;49.444;11.054;2024-01-30T15:36:29;9.10;99.90
6110;DHT22;3085;49.444;11.054;2024-01-30T15:38:55;9.00;99.90
6110;DHT22;3085;49.444;11.054;2024-01-30T15:41:22;9.00;99.90
6110;DHT22;3085;49.444;11.054;2024-01-30T15:43:49;9.00;99.90
6110;DHT22;3085;49.444;11.054;2024-01-30T15:46:16;9.00;99.90
6110;DHT22;3085;49.444;11.054;2024-01-30T15:48:45;8.90;99.90
6110;DHT22;3085;49.444;11.054;2024-01-30T15:51:12;9.00;99.90
6110;DHT22;3085;49.444;11.054;2024-01-30T15:53:39;8.90;99.90
6110;DHT22;3085;49.444;11.054;2024-01-30T15:56:06;8.90;99.90
6110;DHT22;3085;49.444;11.054;2024-01-30T15:58:33;8.90;99.90
6110;DHT22;3085;49.444;11.054;2024-01-30T16:00:59;8.90;99.90